Time;durP1;ratioP1;P1;durP2;ratioP2;P2;SDS_P1;SDS_P2;PMS_P1;PMS_P2;Temp;Humidity;BMP_temperature;BMP_pressure;BME280_temperature;BME280_humidity;BME280_pressure;Samples;Min_cycle;Max_cycle;Signal;HPM_P1;HPM_P2
2024/01/15 00:02:13;;;;;;;20.52;8.60;;;-6.20;99.90;;;;;;5041419;28;20041;-78
2024/01/15 00:04:40;;;;;;;16.77;8.15;;;-6.20;99.90;;;;;;5029006;28;20408;-78
2024/01/15 00:07:07;;;;;;;14.38;7.75;;;-6.20;99.90;;;;;;5055707;28;20116;-78
2024/01/15 00:09:33;;;;;;;16.60;7.38;;;-6.20;99.90;;;;;;5055399;28;20032;-78
2024/01/15 00:12:00;;;;;;;16.08;7.90;;;-6.20;99.90;;;;;;5049508;28;20029;-78
2024/01/15 00:14:25;;;;;;;15.20;7.35;;;-6.20;99.90;;;;;;5034908;28;20040;-78
2024/01/15 00:16:51;;;;;;;20.15;7.97;;;-6.20;99.90;;;;;;5018146;28;20025;-78
2024/01/15 00:19:18;;;;;;;14.60;7.13;;;-6.20;99.90;;;;;;5042357;28;20090;-78
2024/01/15 00:21:44;;;;;;;15.48;7.55;;;-6.20;99.90;;;;;;5052142;28;20026;-78
2024/01/15 00:24:10;;;;;;;15.05;7.45;;;-6.20;99.90;;;;;;5034532;28;20029;-78
2024/01/15 00:26:35;;;;;;;17.55;8.73;;;-6.20;99.90;;;;;;5034510;28;20397;-78
2024/01/15 00:29:02;;;;;;;14.80;7.47;;;-6.20;99.90;;;;;;5035852;28;20032;-78
2024/01/15 00:31:29;;;;;;;15.73;6.47;;;-6.20;99.90;;;;;;5040214;28;20039;-78
2024/01/15 00:33:55;;;;;;;13.70;7.18;;;-6.20;99.90;;;;;;5034394;28;20048;-78
2024/01/15 00:36:21;;;;;;;14.65;6.45;;;-6.20;99.90;;;;;;5035730;28;20018;-78
2024/01/15 00:38:47;;;;;;;14.57;6.75;;;-6.20;99.90;;;;;;5034120;28;20083;-78
2024/01/15 00:41:14;;;;;;;15.30;7.72;;;-6.10;99.90;;;;;;5035296;28;20037;-78
2024/01/15 00:43:39;;;;;;;15.77;7.40;;;-6.10;99.90;;;;;;5033879;28;20041;-78
2024/01/15 00:46:05;;;;;;;14.15;7.20;;;-6.10;99.90;;;;;;5017285;28;20037;-78
2024/01/15 00:48:31;;;;;;;14.80;7.45;;;-6.10;99.90;;;;;;5035483;28;20042;-78
2024/01/15 00:50:57;;;;;;;19.33;7.85;;;-6.10;99.90;;;;;;5036297;28;20075;-78
2024/01/15 00:53:23;;;;;;;13.27;6.72;;;-6.10;99.90;;;;;;5035226;28;20029;-78
2024/01/15 00:55:49;;;;;;;16.73;7.05;;;-6.10;99.90;;;;;;5035816;28;20116;-78
2024/01/15 00:58:15;;;;;;;12.93;6.93;;;-6.10;99.90;;;;;;5035583;28;20033;-78
2024/01/15 01:00:41;;;;;;;13.95;6.78;;;-6.10;99.90;;;;;;5034088;28;20025;-78
2024/01/15 01:03:08;;;;;;;16.52;7.80;;;-6.00;99.90;;;;;;5020122;28;20394;-78
2024/01/15 01:05:34;;;;;;;16.42;7.50;;;-6.10;99.90;;;;;;5037376;28;20506;-77
2024/01/15 01:08:00;;;;;;;16.67;7.68;;;-6.10;99.90;;;;;;5037615;28;20054;-79
2024/01/15 01:10:27;;;;;;;19.83;8.07;;;-6.00;99.90;;;;;;5036523;28;20057;-78
2024/01/15 01:12:52;;;;;;;12.55;6.65;;;-6.10;99.90;;;;;;5037692;28;20017;-78
2024/01/15 01:15:18;;;;;;;12.85;5.88;;;-6.10;99.90;;;;;;5036215;28;20036;-78
2024/01/15 01:17:44;;;;;;;11.38;6.57;;;-6.10;99.90;;;;;;5035963;28;20025;-78
2024/01/15 01:20:10;;;;;;;11.52;6.55;;;-6.10;99.90;;;;;;5050368;28;20370;-78
2024/01/15 01:22:36;;;;;;;14.20;6.57;;;-6.10;99.90;;;;;;5038395;28;20545;-78
2024/01/15 01:25:02;;;;;;;13.00;6.63;;;-6.10;99.90;;;;;;5044334;28;20068;-78
2024/01/15 01:27:28;;;;;;;9.50;6.07;;;-6.10;99.90;;;;;;5057575;28;20028;-78
2024/01/15 01:29:54;;;;;;;14.82;6.20;;;-6.10;99.90;;;;;;5056127;28;20033;-78
2024/01/15 01:32:19;;;;;;;11.85;6.30;;;-6.10;99.90;;;;;;5048008;28;20028;-78
2024/01/15 01:34:45;;;;;;;16.10;6.25;;;-6.00;99.90;;;;;;5037701;28;20029;-77
2024/01/15 01:37:14;;;;;;;14.23;6.45;;;-6.10;99.90;;;;;;5036008;28;20122;-78
2024/01/15 01:39:41;;;;;;;13.57;7.18;;;-6.10;99.90;;;;;;5037266;28;20508;-78
2024/01/15 01:42:07;;;;;;;11.38;6.65;;;-6.10;99.90;;;;;;5037262;28;20041;-78
2024/01/15 01:44:33;;;;;;;12.98;6.55;;;-6.10;99.90;;;;;;5037452;28;20244;-78
2024/01/15 01:47:00;;;;;;;12.00;6.13;;;-6.00;99.90;;;;;;5036709;28;20090;-78
2024/01/15 01:49:27;;;;;;;12.43;6.22;;;-6.00;99.90;;;;;;5019362;28;20474;-78
2024/01/15 01:51:55;;;;;;;13.70;6.85;;;-6.00;99.90;;;;;;5051462;28;20079;-78
2024/01/15 01:54:20;;;;;;;13.52;6.50;;;-6.00;99.90;;;;;;5037147;28;20022;-77
2024/01/15 01:56:48;;;;;;;14.93;7.68;;;-5.90;99.90;;;;;;5036013;28;20501;-78
2024/01/15 01:59:14;;;;;;;14.10;7.47;;;-6.00;99.90;;;;;;5035725;28;20501;-78
2024/01/15 02:01:41;;;;;;;15.35;8.00;;;-6.00;99.90;;;;;;5043608;28;20087;-78
2024/01/15 02:04:08;;;;;;;13.85;8.00;;;-6.00;99.90;;;;;;5037074;28;20021;-78
2024/01/15 02:06:34;;;;;;;13.23;7.32;;;-6.00;99.90;;;;;;5036269;28;20490;-78
2024/01/15 02:09:00;;;;;;;15.75;6.82;;;-6.00;99.90;;;;;;5037061;28;20072;-78
2024/01/15 02:11:26;;;;;;;10.73;6.05;;;-5.90;99.90;;;;;;5018855;28;20026;-78
2024/01/15 02:13:52;;;;;;;11.98;6.40;;;-5.90;99.90;;;;;;5037992;28;20021;-78
2024/01/15 02:16:17;;;;;;;9.75;6.07;;;-5.90;99.90;;;;;;5035173;28;20030;-78
2024/01/15 02:18:44;;;;;;;14.85;6.93;;;-5.90;99.90;;;;;;5036735;28;20064;-78
2024/01/15 02:21:11;;;;;;;12.57;6.47;;;-5.90;99.90;;;;;;5037369;28;20082;-78
2024/01/15 02:23:38;;;;;;;13.27;6.85;;;-5.90;99.90;;;;;;5055454;28;20029;-78
2024/01/15 02:26:05;;;;;;;10.05;5.80;;;-5.90;99.90;;;;;;5057346;28;20025;-78
2024/01/15 02:28:32;;;;;;;17.70;7.43;;;-5.90;99.90;;;;;;5056006;28;20488;-78
2024/01/15 02:30:57;;;;;;;11.55;6.50;;;-5.90;99.90;;;;;;5057481;28;20075;-78
2024/01/15 02:33:23;;;;;;;14.95;6.30;;;-5.90;99.90;;;;;;5037309;28;20025;-78
2024/01/15 02:35:51;;;;;;;10.50;6.47;;;-5.90;99.90;;;;;;5036285;28;20048;-78
2024/01/15 02:38:17;;;;;;;12.15;6.35;;;-5.90;99.90;;;;;;5036666;28;20026;-78
2024/01/15 02:40:44;;;;;;;14.13;7.70;;;-5.80;99.90;;;;;;5036551;28;20021;-78
2024/01/15 02:43:11;;;;;;;11.75;6.30;;;-5.80;99.90;;;;;;5034405;28;20017;-78
2024/01/15 02:45:36;;;;;;;11.73;6.05;;;-5.80;99.90;;;;;;5034521;28;20037;-78
2024/01/15 02:48:02;;;;;;;11.57;6.35;;;-5.80;99.90;;;;;;5035566;28;20075;-78
2024/01/15 02:50:28;;;;;;;9.43;5.68;;;-5.80;99.90;;;;;;5033870;28;20102;-78
2024/01/15 02:52:53;;;;;;;11.40;6.35;;;-5.80;99.90;;;;;;5017634;28;20030;-78
2024/01/15 02:55:19;;;;;;;11.10;6.07;;;-5.80;99.90;;;;;;5020975;28;20028;-78
2024/01/15 02:57:45;;;;;;;11.80;5.50;;;-5.80;99.90;;;;;;5054228;28;20027;-78
2024/01/15 03:00:14;;;;;;;12.63;6.35;;;-5.80;99.90;;;;;;5034415;28;20043;-78
2024/01/15 03:02:40;;;;;;;13.88;7.60;;;-5.70;99.90;;;;;;5051305;28;20036;-78
2024/01/15 03:05:07;;;;;;;20.55;9.50;;;-5.70;99.90;;;;;;5055308;28;20028;-78
2024/01/15 03:07:33;;;;;;;17.98;8.02;;;-5.70;99.90;;;;;;5054987;28;20025;-78
2024/01/15 03:09:59;;;;;;;16.23;7.53;;;-5.80;99.90;;;;;;5051110;28;20128;-78
2024/01/15 03:12:26;;;;;;;24.25;9.27;;;-5.80;99.90;;;;;;5036352;28;20052;-78
2024/01/15 03:14:52;;;;;;;21.77;9.57;;;-5.80;99.90;;;;;;5037236;28;20029;-78
2024/01/15 03:17:17;;;;;;;20.63;9.02;;;-5.80;99.90;;;;;;5050923;28;20025;-78
2024/01/15 03:19:43;;;;;;;19.98;9.40;;;-5.80;99.90;;;;;;5038125;28;20409;-78
2024/01/15 03:22:09;;;;;;;20.73;9.57;;;-5.80;99.90;;;;;;5036337;28;20063;-78
2024/01/15 03:24:35;;;;;;;15.57;8.43;;;-5.80;99.90;;;;;;5035742;28;20031;-78
2024/01/15 03:27:01;;;;;;;19.30;8.13;;;-5.70;99.90;;;;;;5047955;28;20033;-78
2024/01/15 03:29:27;;;;;;;19.80;8.75;;;-5.70;99.90;;;;;;5037719;28;20394;-78
2024/01/15 03:31:53;;;;;;;17.30;8.25;;;-5.70;99.90;;;;;;5045087;28;20093;-78
2024/01/15 03:34:19;;;;;;;16.45;7.55;;;-5.70;99.90;;;;;;5055779;28;20025;-77
2024/01/15 03:36:44;;;;;;;15.25;7.50;;;-5.70;99.90;;;;;;5043687;28;20025;-78
2024/01/15 03:39:10;;;;;;;13.80;7.32;;;-5.70;99.90;;;;;;5017353;28;20124;-78
2024/01/15 03:41:36;;;;;;;11.80;6.97;;;-5.70;99.90;;;;;;5035645;28;20121;-78
2024/01/15 03:44:02;;;;;;;12.75;7.03;;;-5.70;99.90;;;;;;5018039;28;20087;-78
2024/01/15 03:46:28;;;;;;;12.57;6.82;;;-5.70;99.90;;;;;;5025044;28;20033;-78
2024/01/15 03:48:53;;;;;;;13.75;7.75;;;-5.60;99.90;;;;;;5055612;28;20029;-78
2024/01/15 03:51:20;;;;;;;14.63;7.55;;;-5.60;99.90;;;;;;5040985;28;20397;-78
2024/01/15 03:53:46;;;;;;;17.98;7.35;;;-5.60;99.90;;;;;;5033684;28;20464;-78
2024/01/15 03:56:12;;;;;;;16.25;8.52;;;-5.60;99.90;;;;;;5035595;28;20079;-78
2024/01/15 03:58:37;;;;;;;17.58;7.70;;;-5.60;99.90;;;;;;5034583;28;20025;-78
2024/01/15 04:01:03;;;;;;;15.80;7.82;;;-5.60;99.90;;;;;;5037351;28;20040;-78
2024/01/15 04:03:29;;;;;;;16.98;7.63;;;-5.60;99.90;;;;;;5054050;28;20029;-78
2024/01/15 04:05:55;;;;;;;13.32;7.20;;;-5.50;99.90;;;;;;5053110;28;20083;-78
2024/01/15 04:08:20;;;;;;;12.73;7.53;;;-5.50;99.90;;;;;;5037107;28;20040;-78
2024/01/15 04:10:46;;;;;;;17.20;8.00;;;-5.50;99.90;;;;;;5034501;28;20030;-78
2024/01/15 04:13:12;;;;;;;13.48;7.28;;;-5.50;99.90;;;;;;5034172;28;20552;-78
2024/01/15 04:15:37;;;;;;;14.13;7.35;;;-5.50;99.90;;;;;;5033077;28;20469;-79
2024/01/15 04:18:03;;;;;;;14.40;7.47;;;-5.50;99.90;;;;;;5021614;28;20057;-78
2024/01/15 04:20:29;;;;;;;15.60;7.47;;;-5.50;99.90;;;;;;5029279;28;20512;-78
2024/01/15 04:22:55;;;;;;;11.30;6.72;;;-5.50;99.90;;;;;;5025254;28;20038;-78
2024/01/15 04:25:21;;;;;;;19.10;8.40;;;-5.50;99.90;;;;;;5025823;28;20109;-78
2024/01/15 04:27:46;;;;;;;16.73;8.05;;;-5.40;99.90;;;;;;5027667;28;20112;-78
2024/01/15 04:30:12;;;;;;;15.18;7.28;;;-5.40;99.90;;;;;;5022024;28;20088;-78
2024/01/15 04:32:38;;;;;;;16.50;8.70;;;-5.40;99.90;;;;;;5029654;28;20037;-80
2024/01/15 04:35:04;;;;;;;19.35;8.60;;;-5.40;99.90;;;;;;5023318;28;20478;-78
2024/01/15 04:37:30;;;;;;;16.55;8.55;;;-5.40;99.90;;;;;;5045867;28;20084;-78
2024/01/15 04:39:57;;;;;;;14.27;7.60;;;-5.30;99.90;;;;;;5019210;28;20029;-78
2024/01/15 04:42:23;;;;;;;14.70;7.50;;;-5.30;99.90;;;;;;5038241;28;20025;-78
2024/01/15 04:44:49;;;;;;;14.25;7.13;;;-5.30;99.90;;;;;;5037460;28;20083;-78
2024/01/15 04:47:15;;;;;;;12.20;6.65;;;-5.30;99.90;;;;;;5051361;28;20028;-78
2024/01/15 04:49:40;;;;;;;13.00;6.88;;;-5.30;99.90;;;;;;5049468;28;20167;-78
2024/01/15 04:52:06;;;;;;;12.95;7.05;;;-5.20;99.90;;;;;;5037347;28;20113;-78
2024/01/15 04:54:32;;;;;;;11.18;6.80;;;-5.20;99.90;;;;;;5032201;28;20367;-79
2024/01/15 04:56:58;;;;;;;14.35;6.82;;;-5.20;99.90;;;;;;5024861;28;20107;-78
2024/01/15 04:59:23;;;;;;;11.93;6.88;;;-5.20;99.90;;;;;;5034760;28;20469;-78
2024/01/15 05:01:49;;;;;;;12.73;7.07;;;-5.10;99.90;;;;;;5026156;28;20026;-78
2024/01/15 05:04:15;;;;;;;13.50;6.90;;;-5.10;99.90;;;;;;5023931;28;20382;-78
2024/01/15 05:06:41;;;;;;;12.23;6.95;;;-5.10;99.90;;;;;;5020870;28;20030;-78
2024/01/15 05:09:07;;;;;;;13.82;7.80;;;-5.10;99.90;;;;;;5031658;28;20029;-78
2024/01/15 05:11:32;;;;;;;13.45;7.60;;;-5.10;99.90;;;;;;5031516;28;20030;-78
2024/01/15 05:13:58;;;;;;;13.93;7.97;;;-5.10;99.90;;;;;;5024295;28;20097;-79
2024/01/15 05:16:24;;;;;;;13.85;7.18;;;-5.10;99.90;;;;;;5025219;28;20029;-79
2024/01/15 05:18:50;;;;;;;14.05;7.00;;;-5.00;99.90;;;;;;5038326;28;20042;-77
2024/01/15 05:21:16;;;;;;;13.43;7.57;;;-5.00;99.90;;;;;;5028274;28;20034;-79
2024/01/15 05:23:41;;;;;;;16.67;7.93;;;-5.00;99.90;;;;;;5033196;28;20394;-79
2024/01/15 05:26:08;;;;;;;15.18;7.93;;;-5.00;99.90;;;;;;5019874;28;20060;-78
2024/01/15 05:28:35;;;;;;;14.52;8.00;;;-4.90;99.90;;;;;;5022846;28;20448;-79
2024/01/15 05:31:00;;;;;;;14.82;8.93;;;-4.90;99.90;;;;;;5030978;28;20026;-79
2024/01/15 05:33:26;;;;;;;19.58;10.45;;;-4.90;99.90;;;;;;5025780;28;20029;-79
2024/01/15 05:35:53;;;;;;;16.40;9.00;;;-4.90;99.90;;;;;;5032669;28;20024;-79
2024/01/15 05:38:19;;;;;;;13.82;7.63;;;-4.90;99.90;;;;;;5025169;28;20018;-79
2024/01/15 05:40:44;;;;;;;14.35;8.35;;;-4.90;99.90;;;;;;5025855;28;20482;-79
2024/01/15 05:43:10;;;;;;;12.82;7.32;;;-4.90;99.90;;;;;;5026621;28;20490;-78
2024/01/15 05:45:38;;;;;;;14.43;7.35;;;-4.90;99.90;;;;;;5026337;28;20061;-79
2024/01/15 05:48:03;;;;;;;14.35;7.80;;;-4.90;99.90;;;;;;5026531;28;20083;-79
2024/01/15 05:50:29;;;;;;;16.67;8.38;;;-4.90;99.90;;;;;;5030571;28;20026;-79
2024/01/15 05:52:55;;;;;;;18.13;8.27;;;-4.90;99.90;;;;;;5026174;28;20485;-79
2024/01/15 05:55:21;;;;;;;14.95;8.43;;;-4.90;99.90;;;;;;5023579;28;20038;-79
2024/01/15 05:57:46;;;;;;;17.63;9.48;;;-4.80;99.90;;;;;;5017194;28;20444;-79
2024/01/15 06:00:12;;;;;;;19.92;10.80;;;-4.80;99.90;;;;;;5027293;28;20037;-79
2024/01/15 06:02:39;;;;;;;16.05;9.23;;;-4.70;99.90;;;;;;5032336;28;20029;-79
2024/01/15 06:05:05;;;;;;;16.98;9.02;;;-4.70;99.90;;;;;;5026114;28;20033;-79
2024/01/15 06:07:32;;;;;;;18.65;10.70;;;-4.70;99.90;;;;;;5033202;28;20030;-79
2024/01/15 06:09:57;;;;;;;22.20;10.63;;;-4.60;99.90;;;;;;5017000;28;20084;-79
2024/01/15 06:12:23;;;;;;;28.02;12.20;;;-4.60;99.90;;;;;;5023348;28;20026;-79
2024/01/15 06:14:49;;;;;;;23.58;10.93;;;-4.50;99.90;;;;;;5029178;28;20029;-79
2024/01/15 06:17:14;;;;;;;21.85;10.43;;;-4.50;99.90;;;;;;5025416;28;20073;-78
2024/01/15 06:19:40;;;;;;;22.98;10.60;;;-4.40;99.90;;;;;;5034663;28;20129;-79
2024/01/15 06:22:06;;;;;;;22.85;11.45;;;-4.40;99.90;;;;;;5018386;28;20422;-79
2024/01/15 06:24:31;;;;;;;23.77;11.27;;;-4.30;99.90;;;;;;5016919;28;20034;-79
2024/01/15 06:26:57;;;;;;;24.42;12.30;;;-4.30;99.90;;;;;;5017024;28;20036;-79
2024/01/15 06:29:25;;;;;;;33.80;14.93;;;-4.30;99.90;;;;;;5016143;28;20038;-79
2024/01/15 06:31:51;;;;;;;20.50;10.20;;;-4.30;99.90;;;;;;5036458;28;20366;-79
2024/01/15 06:34:17;;;;;;;20.10;9.55;;;-4.20;99.90;;;;;;5053490;28;20036;-79
2024/01/15 06:36:43;;;;;;;18.63;9.45;;;-4.20;99.90;;;;;;5037632;28;20032;-79
2024/01/15 06:39:09;;;;;;;22.40;9.80;;;-4.20;99.90;;;;;;5043852;28;20029;-80
2024/01/15 06:41:41;;;;;;;16.73;8.98;;;-4.10;99.90;;;;;;5056381;28;20036;-80
2024/01/15 06:44:07;;;;;;;14.85;8.20;;;-4.10;99.90;;;;;;5058284;28;20032;-79
2024/01/15 06:46:32;;;;;;;16.35;8.50;;;-4.00;99.90;;;;;;5042244;28;20037;-79
2024/01/15 06:48:58;;;;;;;18.33;8.45;;;-3.90;99.90;;;;;;5037471;28;20087;-79
2024/01/15 06:51:23;;;;;;;17.08;8.38;;;-3.90;99.90;;;;;;5036854;28;20100;-80
2024/01/15 06:53:49;;;;;;;16.45;8.15;;;-3.80;99.90;;;;;;5036936;28;20109;-80
2024/01/15 06:56:15;;;;;;;20.38;9.52;;;-3.80;99.90;;;;;;5036662;28;20032;-80
2024/01/15 06:58:40;;;;;;;19.58;9.52;;;-3.80;99.90;;;;;;5036793;28;20692;-80
2024/01/15 07:01:07;;;;;;;17.73;9.43;;;-3.80;99.90;;;;;;5038670;28;20025;-79
2024/01/15 07:03:33;;;;;;;19.25;9.98;;;-3.80;99.90;;;;;;5057773;28;20105;-80
2024/01/15 07:05:59;;;;;;;17.35;9.57;;;-3.70;99.90;;;;;;5056248;28;20063;-80
2024/01/15 07:08:24;;;;;;;16.75;9.45;;;-3.80;99.90;;;;;;5056365;28;20021;-80
2024/01/15 07:10:50;;;;;;;15.75;8.75;;;-3.70;99.90;;;;;;5057727;28;20025;-80
2024/01/15 07:13:16;;;;;;;19.70;8.18;;;-3.70;99.90;;;;;;5056677;28;20060;-80
2024/01/15 07:15:41;;;;;;;18.17;7.78;;;-3.70;99.90;;;;;;5049343;28;20033;-80
2024/01/15 07:18:07;;;;;;;18.05;9.07;;;-3.70;99.90;;;;;;5035714;28;20073;-80
2024/01/15 07:20:32;;;;;;;21.83;8.80;;;-3.60;99.90;;;;;;5037268;28;20029;-80
2024/01/15 07:22:58;;;;;;;17.42;8.52;;;-3.50;99.90;;;;;;5035552;28;20120;-79
2024/01/15 07:25:26;;;;;;;17.88;8.20;;;-3.50;99.90;;;;;;5019072;28;20041;-80
2024/01/15 07:27:53;;;;;;;16.17;8.25;;;-3.50;99.90;;;;;;5035750;28;20082;-79
2024/01/15 07:30:19;;;;;;;20.10;9.55;;;-3.40;99.90;;;;;;5036768;28;20033;-80
2024/01/15 07:32:45;;;;;;;18.48;9.60;;;-3.40;99.90;;;;;;5053283;28;20029;-79
2024/01/15 07:35:10;;;;;;;26.67;12.60;;;-3.30;99.90;;;;;;5051118;28;20485;-79
2024/01/15 07:37:36;;;;;;;43.45;19.40;;;-3.30;99.90;;;;;;5039290;28;20400;-80
2024/01/15 07:40:04;;;;;;;39.45;16.52;;;-3.20;99.90;;;;;;5038623;28;20472;-80
2024/01/15 07:42:30;;;;;;;21.60;9.18;;;-3.10;99.90;;;;;;5038652;28;20047;-79
2024/01/15 07:44:55;;;;;;;11.25;5.32;;;-3.00;99.90;;;;;;5053991;28;20544;-80
2024/01/15 07:47:21;;;;;;;11.20;4.10;;;-2.90;99.90;;;;;;5035614;28;20038;-80
2024/01/15 07:49:46;;;;;;;11.48;4.78;;;-2.80;99.90;;;;;;5036774;28;20079;-80
2024/01/15 07:52:13;;;;;;;10.80;5.25;;;-2.70;99.90;;;;;;5039162;28;20029;-79
2024/01/15 07:54:39;;;;;;;9.55;4.50;;;-2.70;99.90;;;;;;5054691;28;20032;-80
2024/01/15 07:57:04;;;;;;;10.15;4.40;;;-2.60;99.90;;;;;;5055503;28;20466;-80
2024/01/15 07:59:30;;;;;;;10.30;4.68;;;-2.60;99.90;;;;;;5057215;28;20055;-80
2024/01/15 08:01:58;;;;;;;7.82;4.45;;;-2.50;99.90;;;;;;5055457;28;20033;-80
2024/01/15 08:04:23;;;;;;;13.00;5.85;;;-2.50;99.90;;;;;;5056936;28;20116;-80
2024/01/15 08:06:49;;;;;;;12.18;7.25;;;-2.40;99.90;;;;;;5055528;28;20063;-80
2024/01/15 08:09:15;;;;;;;9.48;4.55;;;-2.30;99.90;;;;;;5056160;28;20393;-80
2024/01/15 08:11:41;;;;;;;8.55;4.13;;;-2.30;99.90;;;;;;5058343;28;20080;-80
2024/01/15 08:14:08;;;;;;;12.88;5.30;;;-2.30;99.90;;;;;;5045194;28;20048;-79
2024/01/15 08:16:33;;;;;;;13.98;5.05;;;-2.30;99.90;;;;;;5041473;28;20034;-79
2024/01/15 08:18:59;;;;;;;10.43;4.75;;;-2.30;99.90;;;;;;5041725;28;20030;-79
2024/01/15 08:21:25;;;;;;;8.88;4.28;;;-2.20;99.90;;;;;;5041344;28;20033;-79
2024/01/15 08:23:50;;;;;;;9.43;4.50;;;-2.20;99.90;;;;;;5058241;28;20520;-79
2024/01/15 08:26:16;;;;;;;10.48;4.47;;;-2.20;99.90;;;;;;5062713;28;20115;-80
2024/01/15 08:28:42;;;;;;;14.05;5.95;;;-2.10;99.90;;;;;;5060967;28;20477;-79
2024/01/15 08:31:07;;;;;;;12.88;5.93;;;-2.10;99.90;;;;;;5061144;28;20477;-80
2024/01/15 08:33:33;;;;;;;11.77;5.68;;;-2.10;99.90;;;;;;5061605;28;20021;-80
2024/01/15 08:35:59;;;;;;;12.55;6.40;;;-2.20;99.90;;;;;;5061372;28;20025;-79
2024/01/15 08:38:25;;;;;;;16.65;7.50;;;-2.20;99.90;;;;;;5062639;28;20052;-79
2024/01/15 08:40:53;;;;;;;20.83;9.23;;;-2.20;99.90;;;;;;5062972;28;20033;-80
2024/01/15 08:43:19;;;;;;;22.17;10.35;;;-2.30;99.90;;;;;;5050708;28;20036;-80
2024/01/15 08:45:45;;;;;;;23.42;11.00;;;-2.20;99.90;;;;;;5052540;28;20041;-79
2024/01/15 08:48:10;;;;;;;27.00;13.10;;;-2.30;99.90;;;;;;5042411;28;20543;-80
2024/01/15 08:50:36;;;;;;;26.92;12.20;;;-2.20;99.90;;;;;;5041582;28;20029;-79
2024/01/15 08:53:02;;;;;;;26.10;12.40;;;-2.20;99.90;;;;;;5049720;28;20029;-80
2024/01/15 08:55:28;;;;;;;23.33;10.52;;;-2.20;99.90;;;;;;5061252;28;20420;-80
2024/01/15 08:57:54;;;;;;;24.90;10.65;;;-2.20;99.90;;;;;;5063044;28;20017;-80
2024/01/15 09:00:20;;;;;;;63.10;21.02;;;-2.10;99.90;;;;;;5061101;28;20040;-79
2024/01/15 09:02:45;;;;;;;54.47;19.27;;;-2.10;99.90;;;;;;5061839;28;20449;-79
2024/01/15 09:05:11;;;;;;;32.05;13.88;;;-2.10;99.90;;;;;;5062440;28;20036;-79
2024/01/15 09:07:37;;;;;;;34.80;13.00;;;-2.00;99.90;;;;;;5050951;28;20021;-79
2024/01/15 09:10:03;;;;;;;33.35;12.63;;;-1.90;99.90;;;;;;5042053;28;20037;-79
2024/01/15 09:12:29;;;;;;;34.33;11.68;;;-1.90;99.90;;;;;;5044414;28;20035;-79
2024/01/15 09:14:55;;;;;;;26.08;11.77;;;-1.90;99.90;;;;;;5060908;28;20021;-80
2024/01/15 09:17:23;;;;;;;23.67;10.50;;;-1.90;99.90;;;;;;5041195;28;20389;-79
2024/01/15 09:19:49;;;;;;;23.77;10.10;;;-1.80;99.90;;;;;;5042669;28;20474;-79
2024/01/15 09:22:18;;;;;;;17.95;8.40;;;-1.80;99.90;;;;;;5040677;28;20041;-79
2024/01/15 09:24:45;;;;;;;12.90;6.55;;;-1.80;99.90;;;;;;5036866;28;20033;-80
2024/01/15 09:27:10;;;;;;;10.82;5.00;;;-1.80;99.90;;;;;;5037769;28;20032;-79
2024/01/15 09:29:41;;;;;;;8.27;4.72;;;-1.80;99.90;;;;;;5039182;28;20026;-80
2024/01/15 09:32:07;;;;;;;10.80;4.03;;;-1.80;99.90;;;;;;5042672;28;20397;-79
2024/01/15 09:34:36;;;;;;;12.93;6.22;;;-1.70;99.90;;;;;;5059274;28;20040;-79
2024/01/15 09:37:02;;;;;;;22.30;8.40;;;-1.70;99.90;;;;;;5057449;28;20029;-79
2024/01/15 09:39:28;;;;;;;29.17;10.05;;;-1.60;99.90;;;;;;5058616;28;20045;-79
2024/01/15 09:41:55;;;;;;;23.90;8.25;;;-1.60;99.90;;;;;;5057407;28;20534;-79
2024/01/15 09:44:21;;;;;;;21.33;8.68;;;-1.50;99.90;;;;;;5057398;28;20029;-79
2024/01/15 09:46:50;;;;;;;18.75;7.50;;;-1.50;99.90;;;;;;5041777;28;20065;-79
2024/01/15 09:49:16;;;;;;;16.58;7.13;;;-1.40;99.90;;;;;;5038320;28;20112;-79
2024/01/15 09:51:43;;;;;;;13.63;6.28;;;-1.40;99.90;;;;;;5038795;28;20370;-79
2024/01/15 09:54:09;;;;;;;12.68;5.85;;;-1.30;99.90;;;;;;5038611;28;20520;-79
2024/01/15 09:56:35;;;;;;;12.77;5.57;;;-1.20;99.90;;;;;;5037616;28;20033;-79
2024/01/15 09:59:01;;;;;;;7.85;3.80;;;-1.10;99.90;;;;;;5058919;28;20084;-80
2024/01/15 10:01:29;;;;;;;11.23;5.53;;;-1.10;99.90;;;;;;5056630;28;20032;-80
2024/01/15 10:03:55;;;;;;;8.52;4.20;;;-1.00;99.90;;;;;;5057158;28;20040;-79
2024/01/15 10:06:22;;;;;;;8.10;4.35;;;-0.90;99.90;;;;;;5056305;28;20481;-79
2024/01/15 10:08:49;;;;;;;48.85;23.08;;;-0.90;99.90;;;;;;5040228;28;20401;-79
2024/01/15 10:11:16;;;;;;;50.05;23.35;;;-0.90;99.90;;;;;;5037818;28;20022;-79
2024/01/15 10:13:43;;;;;;;47.80;22.17;;;-0.80;99.90;;;;;;5038386;28;20025;-79
2024/01/15 10:16:09;;;;;;;34.45;14.95;;;-0.70;99.90;;;;;;5037970;28;20040;-79
2024/01/15 10:18:36;;;;;;;17.42;7.70;;;-0.70;99.90;;;;;;5027202;28;20018;-79
2024/01/15 10:21:03;;;;;;;20.83;11.55;;;-0.60;99.90;;;;;;5026459;28;20025;-80
2024/01/15 10:23:31;;;;;;;12.77;6.65;;;-0.60;99.90;;;;;;5026158;28;20461;-80
2024/01/15 10:25:58;;;;;;;8.55;4.40;;;-0.60;99.90;;;;;;5024215;28;20025;-79
2024/01/15 10:28:26;;;;;;;6.75;3.35;;;-0.50;99.90;;;;;;5033200;28;20030;-79
2024/01/15 10:30:56;;;;;;;5.32;3.00;;;-0.60;99.90;;;;;;5020377;28;20017;-79
2024/01/15 10:33:25;;;;;;;8.98;4.25;;;-0.60;99.90;;;;;;5023619;28;20021;-79
2024/01/15 10:35:55;;;;;;;7.78;3.97;;;-0.60;99.90;;;;;;5027004;28;20029;-79
2024/01/15 10:38:22;;;;;;;11.13;4.53;;;-0.60;99.90;;;;;;5022008;28;20026;-79
2024/01/15 10:40:51;;;;;;;8.85;4.47;;;-0.60;99.90;;;;;;5045918;28;20024;-79
2024/01/15 10:43:17;;;;;;;8.80;4.30;;;-0.60;99.90;;;;;;5057115;28;20054;-80
2024/01/15 10:45:45;;;;;;;8.13;4.25;;;-0.70;99.90;;;;;;5040075;28;20041;-80
2024/01/15 10:48:10;;;;;;;11.25;4.35;;;-0.70;99.90;;;;;;5029766;28;20026;-80
2024/01/15 10:50:36;;;;;;;8.15;4.20;;;-0.70;99.90;;;;;;5034037;28;20048;-80
2024/01/15 10:53:02;;;;;;;11.15;4.03;;;-0.70;99.90;;;;;;5027051;28;20465;-80
2024/01/15 10:55:29;;;;;;;9.65;4.35;;;-0.70;99.90;;;;;;5031844;28;20105;-80
2024/01/15 10:57:56;;;;;;;9.13;4.93;;;-0.70;99.90;;;;;;5023848;28;20052;-80
2024/01/15 11:00:22;;;;;;;9.00;4.30;;;-0.70;99.90;;;;;;5024461;28;20033;-80
2024/01/15 11:02:48;;;;;;;8.73;4.38;;;-0.70;99.90;;;;;;5026129;28;20083;-79
2024/01/15 11:05:13;;;;;;;10.35;4.57;;;-0.70;99.90;;;;;;5025839;28;20036;-79
2024/01/15 11:07:41;;;;;;;8.80;4.53;;;-0.70;99.90;;;;;;5022365;28;20026;-79
2024/01/15 11:10:10;;;;;;;11.32;4.65;;;-0.70;99.90;;;;;;5032665;28;20069;-79
2024/01/15 11:12:35;;;;;;;11.77;4.93;;;-0.70;99.90;;;;;;5017683;28;20164;-79
2024/01/15 11:15:08;;;;;;;9.75;3.97;;;-0.70;99.90;;;;;;5019764;28;20113;-80
2024/01/15 11:18:11;;;;;;;9.50;4.72;;;-0.80;99.90;;;;;;5036530;28;20482;-80
2024/01/15 11:20:37;;;;;;;10.75;4.85;;;-0.80;99.90;;;;;;5025238;28;20030;-80
2024/01/15 11:23:02;;;;;;;9.07;4.43;;;-0.80;99.90;;;;;;5024552;28;20091;-79
2024/01/15 11:25:36;;;;;;;9.48;4.70;;;-0.80;99.90;;;;;;5024212;28;20443;-80
2024/01/15 11:28:02;;;;;;;9.48;4.30;;;-0.90;99.90;;;;;;5030707;28;20041;-79
2024/01/15 11:30:27;;;;;;;15.38;6.70;;;-0.90;99.90;;;;;;5029659;28;20026;-79
2024/01/15 11:32:53;;;;;;;24.30;11.63;;;-0.90;99.90;;;;;;5027208;28;20026;-80
2024/01/15 11:35:19;;;;;;;13.65;6.28;;;-0.90;99.90;;;;;;5015146;28;20064;-79
2024/01/15 11:37:51;;;;;;;11.32;5.63;;;-0.90;99.90;;;;;;5032431;28;20026;-80
2024/01/15 11:40:38;;;;;;;14.18;6.20;;;-0.90;99.90;;;;;;5048535;28;20021;-80
2024/01/15 11:43:06;;;;;;;13.13;5.38;;;-0.90;99.90;;;;;;5027363;28;20048;-80
2024/01/15 11:45:33;;;;;;;12.27;5.30;;;-0.90;99.90;;;;;;5027479;28;20037;-79
2024/01/15 11:48:10;;;;;;;11.55;4.75;;;-1.00;99.90;;;;;;5024619;28;20079;-80
2024/01/15 11:50:40;;;;;;;11.77;5.10;;;-0.90;99.90;;;;;;5025522;28;20129;-79
2024/01/15 11:53:18;;;;;;;10.18;5.07;;;-1.00;99.90;;;;;;5021002;28;20081;-80
2024/01/15 11:55:45;;;;;;;11.77;5.40;;;-1.00;99.90;;;;;;5025800;28;20496;-80
2024/01/15 11:58:11;;;;;;;12.07;5.55;;;-1.00;99.90;;;;;;5030982;28;20032;-80
2024/01/15 12:00:45;;;;;;;11.27;5.15;;;-0.90;99.90;;;;;;5026103;28;20444;-80
2024/01/15 12:03:11;;;;;;;11.45;5.03;;;-0.90;99.90;;;;;;5025545;28;20459;-80
2024/01/15 12:05:38;;;;;;;11.95;4.68;;;-0.90;99.90;;;;;;5028005;28;20045;-79
2024/01/15 12:08:10;;;;;;;8.70;4.10;;;-0.80;99.90;;;;;;5023690;28;20022;-79
2024/01/15 12:10:40;;;;;;;8.57;3.90;;;-0.80;99.90;;;;;;5026110;28;20025;-79
2024/01/15 12:13:06;;;;;;;7.97;4.72;;;-0.80;99.90;;;;;;5034336;28;20056;-80
2024/01/15 12:15:32;;;;;;;10.20;4.63;;;-0.70;99.90;;;;;;5033637;28;20119;-79
2024/01/15 12:18:02;;;;;;;12.15;5.30;;;-0.70;99.90;;;;;;5025026;28;20033;-79
2024/01/15 12:20:28;;;;;;;16.05;7.50;;;-0.70;99.90;;;;;;5021512;28;20022;-80
2024/01/15 12:22:57;;;;;;;17.55;8.63;;;-0.60;99.90;;;;;;5035582;28;20084;-80
2024/01/15 12:25:24;;;;;;;16.95;8.32;;;-0.60;99.90;;;;;;5021733;28;20057;-79
2024/01/15 12:27:51;;;;;;;9.23;4.60;;;-0.50;99.90;;;;;;5022852;28;20033;-82
2024/01/15 12:30:17;;;;;;;7.00;3.83;;;-0.50;99.90;;;;;;5032033;28;20030;-82
2024/01/15 12:32:43;;;;;;;17.73;6.57;;;-0.50;99.90;;;;;;5025535;28;20026;-82